Time;durP1;ratioP1;P1;durP2;ratioP2;P2;SDS_P1;SDS_P2;PMS_P1;PMS_P2;Temp;Humidity;BMP_temperature;BMP_pressure;BME280_temperature;BME280_humidity;BME280_pressure;Samples;Min_cycle;Max_cycle;Signal;HPM_P1;HPM_P2
2021/12/28 00:01:12;;;;;;;36.08;21.92;;;4.60;99.90;;;;;;4774059;30;20062;-89
2021/12/28 00:03:40;;;;;;;40.22;22.55;;;4.60;99.90;;;;;;4787207;29;20047;-89
2021/12/28 00:06:31;;;;;;;42.90;23.30;;;5.00;99.90;;;;;;4773054;30;20134;-89
2021/12/28 00:09:03;;;;;;;48.40;22.65;;;4.80;99.90;;;;;;4775328;30;20074;-90
2021/12/28 00:11:32;;;;;;;48.55;24.42;;;4.80;99.90;;;;;;4773072;30;20120;-91
2021/12/28 00:14:05;;;;;;;59.25;25.65;;;5.00;99.90;;;;;;4772317;30;20112;-91
2021/12/28 00:17:58;;;;;;;49.78;24.90;;;4.80;99.90;;;;;;4787649;30;20050;-92
2021/12/28 00:19:22;;;;;;;47.17;24.67;;;5.00;99.90;;;;;;4774694;30;20067;-92
2021/12/28 00:22:12;;;;;;;48.35;24.92;;;5.10;99.90;;;;;;4772773;30;20104;-92
2021/12/28 00:24:43;;;;;;;62.85;25.95;;;5.20;99.90;;;;;;4773065;30;20146;-91
2021/12/28 00:27:11;;;;;;;54.35;26.60;;;5.20;99.90;;;;;;4773608;30;20058;-91
2021/12/28 00:29:37;;;;;;;59.88;27.05;;;5.20;99.90;;;;;;4786770;30;20071;-91
2021/12/28 00:32:13;;;;;;;;;;;;;;;;;;;;;
2021/12/28 00:34:42;;;;;;;62.45;27.23;;;5.20;99.90;;;;;;4773383;30;20448;-91
2021/12/28 00:37:07;;;;;;;58.63;26.45;;;5.20;99.90;;;;;;4786415;30;20059;-91
2021/12/28 00:39:38;;;;;;;61.30;28.25;;;5.20;99.90;;;;;;4772581;30;20120;-90
2021/12/28 00:42:07;;;;;;;64.47;27.85;;;5.00;99.90;;;;;;4772258;30;20061;-90
2021/12/28 00:45:11;;;;;;;68.13;30.58;;;4.90;99.90;;;;;;4787452;29;20055;-92
2021/12/28 00:47:39;;;;;;;75.53;31.48;;;4.90;99.90;;;;;;4771993;30;20071;-91
2021/12/28 00:50:15;;;;;;;93.22;30.25;;;5.20;99.90;;;;;;4772698;30;20058;-90
2021/12/28 00:52:47;;;;;;;65.25;30.13;;;5.00;99.90;;;;;;4771782;30;20093;-92
2021/12/28 00:55:17;;;;;;;74.13;30.08;;;4.90;99.90;;;;;;4772181;30;20051;-90
2021/12/28 00:57:51;;;;;;;77.38;31.17;;;5.20;99.90;;;;;;4772249;30;20067;-91
2021/12/28 01:00:22;;;;;;;73.25;32.33;;;5.00;99.90;;;;;;4772074;30;20087;-90
2021/12/28 01:02:48;;;;;;;103.55;34.22;;;5.20;99.90;;;;;;4771676;30;20051;-91
2021/12/28 01:05:19;;;;;;;161.77;61.95;;;5.40;99.90;;;;;;4772118;30;20069;-90
2021/12/28 01:07:45;;;;;;;86.07;32.72;;;5.30;99.90;;;;;;4786323;30;20051;-90
2021/12/28 01:10:16;;;;;;;101.15;33.75;;;5.10;99.90;;;;;;4786535;30;20055;-90
2021/12/28 01:12:41;;;;;;;100.82;33.83;;;5.10;99.90;;;;;;4772195;30;20576;-91
2021/12/28 01:15:11;;;;;;;94.93;32.13;;;5.00;99.90;;;;;;4785881;30;20409;-90
2021/12/28 01:17:44;;;;;;;98.55;33.72;;;5.30;99.90;;;;;;4772329;30;20067;-90
2021/12/28 01:20:11;;;;;;;102.53;35.13;;;5.30;99.90;;;;;;4772241;30;20054;-90
2021/12/28 01:22:46;;;;;;;104.07;35.13;;;5.30;99.90;;;;;;4771688;30;20075;-91
2021/12/28 01:25:20;;;;;;;120.07;37.50;;;5.20;99.90;;;;;;4773460;30;20473;-91
2021/12/28 01:27:46;;;;;;;115.53;34.72;;;5.00;99.90;;;;;;4785808;30;20063;-92
2021/12/28 01:30:15;;;;;;;105.60;36.67;;;5.30;99.90;;;;;;4786463;30;20459;-92
2021/12/28 01:32:51;;;;;;;;;;;;;;;;;;;;;
2021/12/28 01:35:17;;;;;;;110.80;37.47;;;5.10;99.90;;;;;;4772967;30;20058;-91
2021/12/28 01:37:43;;;;;;;205.07;42.10;;;5.20;99.90;;;;;;4771355;30;20387;-91
2021/12/28 01:40:10;;;;;;;155.82;40.92;;;5.30;99.90;;;;;;4771468;30;20066;-91
2021/12/28 01:42:55;;;;;;;153.85;39.33;;;5.20;99.90;;;;;;4786199;30;20282;-90
2021/12/28 01:45:38;;;;;;;159.75;40.22;;;5.30;99.90;;;;;;4786617;29;20138;-91
2021/12/28 01:48:05;;;;;;;113.15;37.42;;;5.30;99.90;;;;;;4785674;30;20055;-91
2021/12/28 01:50:30;;;;;;;313.45;47.90;;;5.30;99.90;;;;;;4770905;29;20048;-91
2021/12/28 01:52:59;;;;;;;145.43;39.88;;;5.30;99.90;;;;;;4796729;29;20055;-91
2021/12/28 01:55:25;;;;;;;301.80;48.95;;;5.20;99.90;;;;;;4742584;30;20058;-90
2021/12/28 01:57:50;;;;;;;146.82;40.85;;;5.30;99.90;;;;;;4770587;30;20062;-90
2021/12/28 02:00:17;;;;;;;174.93;41.03;;;5.10;99.90;;;;;;4771544;30;20062;-91
2021/12/28 02:02:45;;;;;;;143.15;40.65;;;5.10;99.90;;;;;;4786163;30;20104;-90
2021/12/28 02:05:11;;;;;;;202.23;43.25;;;5.20;99.90;;;;;;4785815;30;20074;-91
2021/12/28 02:07:37;;;;;;;141.15;39.03;;;5.40;99.90;;;;;;4785647;30;20051;-91
2021/12/28 02:10:03;;;;;;;530.55;58.05;;;5.30;99.90;;;;;;4779960;29;20058;-91
2021/12/28 02:12:34;;;;;;;176.02;39.90;;;5.40;99.90;;;;;;4788827;29;20055;-90
2021/12/28 02:15:06;;;;;;;424.73;42.95;;;5.30;99.90;;;;;;4774660;29;20517;-90
2021/12/28 02:17:41;;;;;;;749.60;63.35;;;5.10;99.90;;;;;;4789990;29;20490;-90
2021/12/28 02:20:13;;;;;;;266.80;42.65;;;5.10;99.90;;;;;;4775549;29;20134;-90
2021/12/28 02:22:39;;;;;;;382.27;51.38;;;5.10;99.90;;;;;;4771722;30;20051;-90
2021/12/28 02:25:08;;;;;;;192.40;34.97;;;4.90;99.90;;;;;;4770593;30;20135;-90
2021/12/28 02:27:36;;;;;;;374.70;44.25;;;5.30;99.90;;;;;;4745732;30;20494;-90
2021/12/28 02:30:11;;;;;;;186.40;40.63;;;5.30;99.90;;;;;;4744347;30;20156;-90
2021/12/28 02:32:42;;;;;;;447.23;55.65;;;5.20;99.90;;;;;;4759890;30;20062;-89
2021/12/28 02:35:09;;;;;;;278.20;46.97;;;5.30;99.90;;;;;;4773993;30;20047;-90
2021/12/28 02:37:35;;;;;;;525.72;54.25;;;5.10;99.90;;;;;;4788769;30;20074;-90
2021/12/28 02:40:05;;;;;;;498.40;55.80;;;5.40;99.90;;;;;;4773631;30;20410;-90
2021/12/28 02:42:33;;;;;;;560.08;57.90;;;5.10;99.90;;;;;;4760295;30;20063;-90
2021/12/28 02:45:02;;;;;;;442.60;56.58;;;5.20;99.90;;;;;;4774279;30;20051;-90
2021/12/28 02:47:31;;;;;;;239.80;43.28;;;5.40;99.90;;;;;;4774218;30;20052;-90
2021/12/28 02:49:56;;;;;;;912.33;73.95;;;5.20;99.90;;;;;;4759957;30;20063;-90
2021/12/28 02:52:22;;;;;;;266.20;45.75;;;5.30;99.90;;;;;;4773944;30;20126;-89
2021/12/28 02:54:48;;;;;;;201.88;43.53;;;5.20;99.90;;;;;;4744140;30;20146;-89
2021/12/28 02:57:14;;;;;;;715.67;70.97;;;5.40;99.90;;;;;;4744226;30;20055;-89
2021/12/28 02:59:49;;;;;;;559.72;63.83;;;5.40;99.90;;;;;;4773760;30;20139;-89
2021/12/28 03:02:20;;;;;;;300.45;50.83;;;5.40;99.90;;;;;;4773574;30;20047;-90
2021/12/28 03:04:50;;;;;;;416.05;55.10;;;5.30;99.90;;;;;;4759731;30;20051;-89
2021/12/28 03:07:18;;;;;;;333.80;48.80;;;5.70;99.90;;;;;;4773623;30;20574;-90
2021/12/28 03:09:47;;;;;;;281.98;48.35;;;5.60;99.90;;;;;;4773690;30;20062;-89
2021/12/28 03:12:18;;;;;;;406.70;50.42;;;5.60;99.90;;;;;;4758755;30;20057;-90
2021/12/28 03:14:53;;;;;;;;;;;5.70;99.90;;;;;;4788879;30;20051;-90
2021/12/28 03:17:22;;;;;;;491.65;53.30;;;5.60;99.90;;;;;;4773247;30;19991;-89
2021/12/28 03:19:48;;;;;;;648.17;61.33;;;5.30;99.90;;;;;;4774099;30;20055;-90
2021/12/28 03:22:16;;;;;;;234.88;43.72;;;5.50;99.90;;;;;;4772501;30;20055;-90
2021/12/28 03:24:42;;;;;;;177.13;45.00;;;5.60;99.90;;;;;;4788370;30;20055;-90
2021/12/28 03:27:10;;;;;;;340.60;54.47;;;5.60;99.90;;;;;;4773010;30;20081;-90
2021/12/28 03:29:38;;;;;;;265.65;49.88;;;5.70;99.90;;;;;;4773781;30;20140;-91
2021/12/28 03:32:04;;;;;;;296.15;49.47;;;5.70;99.90;;;;;;4773539;30;20051;-91
2021/12/28 03:34:30;;;;;;;154.15;42.30;;;5.60;99.90;;;;;;4787991;30;20051;-90
2021/12/28 03:37:01;;;;;;;256.75;47.65;;;5.60;99.90;;;;;;4743699;29;20074;-90
2021/12/28 03:39:30;;;;;;;247.10;47.65;;;5.70;99.90;;;;;;4773040;30;20127;-90
2021/12/28 03:41:55;;;;;;;325.30;46.53;;;5.60;99.90;;;;;;4773741;30;20145;-90
2021/12/28 03:44:24;;;;;;;264.50;44.55;;;5.80;99.90;;;;;;4787460;30;20540;-90
2021/12/28 03:46:49;;;;;;;263.02;47.75;;;5.50;99.90;;;;;;4787975;30;20196;-90
2021/12/28 03:49:15;;;;;;;178.68;44.47;;;5.60;99.90;;;;;;4772890;30;20493;-90
2021/12/28 03:51:41;;;;;;;158.13;41.70;;;5.80;99.90;;;;;;4773076;30;20501;-90
2021/12/28 03:54:07;;;;;;;181.40;42.80;;;5.70;99.90;;;;;;4757987;30;20058;-90
2021/12/28 03:56:35;;;;;;;200.70;42.30;;;5.60;99.90;;;;;;4787774;30;20101;-90
2021/12/28 03:59:04;;;;;;;625.65;61.90;;;5.60;99.90;;;;;;4787886;30;20452;-89
2021/12/28 04:01:35;;;;;;;230.50;45.50;;;5.80;99.90;;;;;;4787454;30;20059;-89
2021/12/28 04:04:00;;;;;;;;;;;5.70;99.90;;;;;;4759544;30;20063;-89
2021/12/28 04:06:27;;;;;;;152.90;38.28;;;5.70;99.90;;;;;;4772756;30;19931;-90
2021/12/28 04:08:52;;;;;;;239.30;41.67;;;5.80;99.90;;;;;;4757949;30;20113;-90
2021/12/28 04:13:50;;;;;;;226.73;46.38;;;5.70;99.90;;;;;;4786853;30;20051;-89
2021/12/28 04:16:16;;;;;;;219.02;39.10;;;5.90;99.90;;;;;;4772454;30;20423;-89
2021/12/28 04:18:45;;;;;;;174.98;40.45;;;5.80;99.90;;;;;;4788456;29;20065;-89
2021/12/28 04:21:10;;;;;;;146.73;38.65;;;5.70;99.90;;;;;;4758019;30;20043;-91
2021/12/28 04:23:39;;;;;;;168.80;43.13;;;5.60;99.90;;;;;;4780372;29;20054;-91
2021/12/28 04:26:08;;;;;;;223.30;44.55;;;5.80;99.90;;;;;;4775051;29;20482;-89
2021/12/28 04:28:34;;;;;;;230.13;41.92;;;5.80;99.90;;;;;;4772610;29;20059;-90
2021/12/28 04:31:08;;;;;;;147.15;39.65;;;5.90;99.90;;;;;;4772032;30;20123;-89
2021/12/28 04:33:46;;;;;;;239.85;45.67;;;5.90;99.90;;;;;;4772946;30;20078;-89
2021/12/28 04:36:14;;;;;;;155.25;40.42;;;5.90;99.90;;;;;;4771895;30;20120;-91
2021/12/28 04:38:41;;;;;;;173.48;43.28;;;5.80;99.90;;;;;;4772106;30;20468;-89
2021/12/28 04:41:07;;;;;;;156.57;41.50;;;5.80;99.90;;;;;;4803743;29;20073;-89
2021/12/28 04:43:33;;;;;;;182.50;44.15;;;6.00;99.90;;;;;;4774499;29;20507;-89
2021/12/28 04:46:02;;;;;;;141.93;41.83;;;5.90;99.90;;;;;;4775147;29;20453;-89
2021/12/28 04:48:27;;;;;;;184.07;44.40;;;5.90;99.90;;;;;;4775397;29;20051;-89
2021/12/28 04:51:01;;;;;;;146.10;39.30;;;6.00;99.90;;;;;;4755343;30;20124;-89
2021/12/28 04:53:26;;;;;;;370.33;48.40;;;6.20;99.90;;;;;;4757298;30;20587;-89
2021/12/28 04:55:52;;;;;;;106.72;34.63;;;6.10;99.90;;;;;;4757507;30;20138;-90
2021/12/28 04:58:18;;;;;;;117.57;40.15;;;5.90;99.90;;;;;;4771472;30;20047;-90
2021/12/28 05:00:45;;;;;;;140.00;41.03;;;6.00;99.90;;;;;;4757281;30;20479;-90
2021/12/28 05:03:10;;;;;;;150.95;42.40;;;6.00;99.90;;;;;;4757334;30;20141;-90
2021/12/28 05:05:45;;;;;;;137.40;43.08;;;6.00;99.90;;;;;;4741955;30;20262;-90
2021/12/28 05:08:11;;;;;;;150.25;42.65;;;5.90;99.90;;;;;;4757819;30;20487;-90
2021/12/28 05:10:38;;;;;;;146.93;44.15;;;6.00;99.90;;;;;;4756489;30;20685;-90
2021/12/28 05:13:03;;;;;;;175.05;44.08;;;6.10;99.90;;;;;;4756859;30;20058;-90
2021/12/28 05:15:29;;;;;;;146.80;41.25;;;6.00;99.90;;;;;;4770963;30;20055;-89
2021/12/28 05:17:55;;;;;;;139.05;41.67;;;6.20;99.90;;;;;;4771483;30;20053;-89
2021/12/28 05:20:21;;;;;;;131.15;41.17;;;6.10;99.90;;;;;;4756168;30;20087;-90
2021/12/28 05:22:47;;;;;;;120.10;39.45;;;6.20;99.90;;;;;;4771512;30;20134;-89
2021/12/28 05:25:12;;;;;;;111.38;39.05;;;6.00;99.90;;;;;;4786150;30;20083;-89
2021/12/28 05:27:41;;;;;;;116.53;38.42;;;6.10;99.90;;;;;;4770988;30;20506;-89
2021/12/28 05:30:13;;;;;;;103.15;37.80;;;5.90;99.90;;;;;;4757415;30;20120;-90
2021/12/28 05:32:39;;;;;;;108.43;37.78;;;6.10;99.90;;;;;;4742721;30;20120;-89
2021/12/28 05:35:08;;;;;;;95.88;36.58;;;6.10;99.90;;;;;;4756418;30;20441;-90
2021/12/28 05:37:34;;;;;;;93.38;36.08;;;5.90;99.90;;;;;;4770722;30;20059;-87
2021/12/28 05:40:00;;;;;;;101.25;37.25;;;6.20;99.90;;;;;;4771214;30;20059;-88
2021/12/28 05:42:30;;;;;;;104.70;36.38;;;6.10;99.90;;;;;;4741802;30;20140;-89
2021/12/28 05:44:56;;;;;;;102.40;35.47;;;6.00;99.90;;;;;;4771542;30;20146;-85
2021/12/28 05:47:24;;;;;;;102.30;35.17;;;6.00;99.90;;;;;;4787147;29;20078;-85
2021/12/28 05:49:53;;;;;;;88.75;32.92;;;5.90;99.90;;;;;;4786136;30;20469;-84
2021/12/28 05:52:21;;;;;;;108.45;34.08;;;5.90;99.90;;;;;;4771254;30;20087;-85
2021/12/28 05:54:50;;;;;;;89.15;32.50;;;6.00;99.90;;;;;;4785754;30;20055;-85
2021/12/28 05:57:21;;;;;;;113.90;32.92;;;6.00;99.90;;;;;;4771604;30;20055;-85
2021/12/28 05:59:46;;;;;;;88.68;31.10;;;6.00;99.90;;;;;;4771577;30;20460;-85
2021/12/28 06:02:12;;;;;;;72.97;29.30;;;5.90;99.90;;;;;;4788705;29;20043;-87
2021/12/28 06:04:38;;;;;;;79.00;28.27;;;5.90;99.90;;;;;;4774547;30;20047;-87
2021/12/28 06:07:06;;;;;;;82.32;28.40;;;5.80;99.90;;;;;;4774022;30;20051;-88
2021/12/28 06:09:32;;;;;;;81.53;29.25;;;5.80;99.90;;;;;;4774000;30;20464;-87
2021/12/28 06:11:57;;;;;;;69.90;27.42;;;5.90;99.90;;;;;;4774642;30;20095;-83
2021/12/28 06:14:26;;;;;;;69.20;26.67;;;5.90;99.90;;;;;;4774094;30;20448;-87
2021/12/28 06:16:52;;;;;;;72.28;26.98;;;6.00;99.90;;;;;;4789126;30;20508;-87
2021/12/28 06:19:17;;;;;;;71.57;26.77;;;5.80;99.90;;;;;;4774215;30;20057;-87
2021/12/28 06:21:43;;;;;;;70.90;26.67;;;5.70;99.90;;;;;;4788747;30;20380;-87
2021/12/28 06:24:09;;;;;;;69.47;25.40;;;5.80;99.90;;;;;;4774360;30;20047;-87
2021/12/28 06:26:34;;;;;;;63.42;26.20;;;5.90;99.90;;;;;;4759357;30;20402;-87
2021/12/28 06:29:00;;;;;;;75.53;27.02;;;5.90;99.90;;;;;;4774242;30;20051;-86
2021/12/28 06:31:28;;;;;;;77.93;25.52;;;5.80;99.90;;;;;;4774269;30;20054;-87
2021/12/28 06:33:58;;;;;;;62.50;24.88;;;5.80;99.90;;;;;;4788841;30;20064;-87
2021/12/28 06:36:26;;;;;;;77.77;24.53;;;5.90;99.90;;;;;;4774442;30;20062;-86
2021/12/28 06:38:52;;;;;;;59.92;24.98;;;5.80;99.90;;;;;;4774396;30;20051;-87
2021/12/28 06:41:18;;;;;;;65.45;24.05;;;5.70;99.90;;;;;;4788994;30;20143;-87
2021/12/28 06:43:44;;;;;;;69.40;24.40;;;5.80;99.90;;;;;;4788597;30;20082;-87
2021/12/28 06:46:09;;;;;;;62.33;23.75;;;5.80;99.90;;;;;;4759584;30;20112;-87
2021/12/28 06:48:35;;;;;;;68.57;23.90;;;5.60;99.90;;;;;;4789718;29;20456;-87
2021/12/28 06:51:01;;;;;;;60.25;23.58;;;5.70;99.90;;;;;;4759329;29;20471;-87
2021/12/28 06:53:26;;;;;;;60.70;23.33;;;5.60;99.90;;;;;;4776219;30;20371;-87
2021/12/28 06:55:52;;;;;;;55.50;22.65;;;5.60;99.90;;;;;;4803448;29;20047;-87
2021/12/28 06:58:18;;;;;;;59.95;23.27;;;5.70;99.90;;;;;;4764689;30;20048;-86
2021/12/28 07:00:44;;;;;;;51.00;22.23;;;5.70;99.90;;;;;;4773600;30;20093;-87
2021/12/28 07:03:09;;;;;;;57.28;21.98;;;5.70;99.90;;;;;;4788682;30;20054;-87
2021/12/28 07:05:35;;;;;;;51.08;20.88;;;5.50;99.90;;;;;;4773771;30;20313;-88
2021/12/28 07:08:01;;;;;;;56.95;21.27;;;5.60;99.90;;;;;;4788654;30;20113;-88
2021/12/28 07:10:29;;;;;;;63.60;22.08;;;5.60;99.90;;;;;;4788468;30;20417;-87
2021/12/28 07:12:55;;;;;;;56.05;20.83;;;5.50;99.90;;;;;;4787121;29;20407;-87
2021/12/28 07:15:21;;;;;;;51.30;20.35;;;5.70;99.90;;;;;;4773751;30;20055;-87
2021/12/28 07:17:47;;;;;;;53.15;20.90;;;5.60;99.90;;;;;;4787982;30;20048;-87
2021/12/28 07:20:13;;;;;;;51.90;19.33;;;5.70;99.90;;;;;;4773664;30;20078;-87
2021/12/28 07:22:39;;;;;;;57.05;19.77;;;5.80;99.90;;;;;;4804422;29;20089;-88
2021/12/28 07:25:05;;;;;;;52.65;19.35;;;5.70;99.90;;;;;;4806319;29;20458;-87
2021/12/28 07:27:31;;;;;;;41.47;18.02;;;5.70;99.90;;;;;;4791386;29;20050;-87
2021/12/28 07:29:57;;;;;;;44.83;18.17;;;5.90;99.90;;;;;;4805844;29;20057;-87
2021/12/28 07:32:22;;;;;;;40.03;16.20;;;5.80;99.90;;;;;;4790780;29;20482;-87
2021/12/28 07:34:48;;;;;;;45.53;17.75;;;5.70;99.90;;;;;;4805823;29;20055;-87
2021/12/28 07:37:14;;;;;;;41.10;17.23;;;5.70;99.90;;;;;;4805773;29;20102;-87
2021/12/28 07:39:42;;;;;;;38.33;17.02;;;5.80;99.90;;;;;;4807260;29;20094;-87
2021/12/28 07:42:08;;;;;;;41.75;16.83;;;5.90;99.90;;;;;;4791135;29;20505;-87
2021/12/28 07:44:33;;;;;;;36.58;17.08;;;5.90;99.90;;;;;;4805981;29;20062;-87
2021/12/28 07:47:01;;;;;;;48.00;17.42;;;5.80;99.90;;;;;;4806704;29;20046;-87
2021/12/28 07:49:27;;;;;;;43.40;17.15;;;5.90;99.90;;;;;;4776705;29;20061;-87
2021/12/28 07:51:53;;;;;;;44.00;16.33;;;5.80;99.90;;;;;;4790414;29;20051;-87
2021/12/28 07:54:18;;;;;;;46.25;15.77;;;5.80;99.90;;;;;;4805888;29;20094;-87
2021/12/28 07:56:44;;;;;;;34.50;15.57;;;6.00;99.90;;;;;;4790435;29;20047;-87
2021/12/28 07:59:12;;;;;;;39.15;16.30;;;5.90;99.90;;;;;;4775981;29;20050;-87
2021/12/28 08:01:38;;;;;;;38.40;14.57;;;5.80;99.90;;;;;;4790790;29;20455;-87
2021/12/28 08:04:04;;;;;;;40.05;15.43;;;6.10;99.90;;;;;;4805192;29;20050;-87
2021/12/28 08:06:29;;;;;;;38.30;14.52;;;5.90;99.90;;;;;;4790826;29;20101;-87
2021/12/28 08:09:01;;;;;;;34.40;15.00;;;5.90;99.90;;;;;;4790286;29;20124;-87
2021/12/28 08:11:27;;;;;;;37.50;14.75;;;6.00;99.90;;;;;;4805609;29;20050;-87
2021/12/28 08:13:55;;;;;;;38.95;14.90;;;5.90;99.90;;;;;;4789919;29;20051;-89
2021/12/28 08:16:21;;;;;;;38.67;14.00;;;5.90;99.90;;;;;;4790513;29;20047;-86
2021/12/28 08:18:49;;;;;;;36.78;14.07;;;5.90;99.90;;;;;;4790020;29;20046;-89
2021/12/28 08:21:23;;;;;;;33.33;13.70;;;5.90;99.90;;;;;;4805124;29;20059;-93
2021/12/28 08:23:51;;;;;;;35.35;13.65;;;5.90;99.90;;;;;;4790741;29;20051;-91
2021/12/28 08:26:20;;;;;;;31.02;12.23;;;6.00;99.90;;;;;;4775966;29;20058;-91
2021/12/28 08:28:56;;;;;;;37.33;12.90;;;6.20;99.90;;;;;;4775137;29;20566;-93
2021/12/28 08:31:26;;;;;;;34.65;12.20;;;6.20;99.90;;;;;;4805082;29;20047;-93
2021/12/28 08:33:55;;;;;;;29.30;12.65;;;6.30;99.90;;;;;;4790287;29;20054;-92
2021/12/28 08:36:33;;;;;;;32.55;12.15;;;6.20;99.90;;;;;;4790129;29;20133;-92
2021/12/28 08:39:04;;;;;;;31.45;12.15;;;6.30;99.90;;;;;;4791656;29;20084;-93
2021/12/28 08:41:35;;;;;;;23.80;10.73;;;6.30;99.90;;;;;;4789300;29;20293;-93
2021/12/28 08:44:06;;;;;;;;;;;6.40;99.90;;;;;;4776177;29;20054;-94
2021/12/28 08:46:36;;;;;;;24.05;10.32;;;6.40;99.90;;;;;;4775467;29;20078;-93
2021/12/28 08:49:05;;;;;;;21.73;10.80;;;6.50;99.90;;;;;;4790290;29;20054;-93
2021/12/28 08:51:35;;;;;;;26.13;10.93;;;6.50;99.90;;;;;;4789718;29;20050;-90
2021/12/28 08:54:01;;;;;;;;;;;6.50;99.90;;;;;;4775207;29;20430;-93
2021/12/28 08:56:32;;;;;;;26.48;10.32;;;6.40;99.90;;;;;;4774292;29;19925;-95
2021/12/28 08:59:02;;;;;;;28.30;10.07;;;6.50;99.90;;;;;;4805193;29;20051;-95
2021/12/28 09:01:35;;;;;;;26.73;9.55;;;6.70;99.90;;;;;;4790186;29;20465;-93
2021/12/28 09:04:03;;;;;;;22.70;9.98;;;6.70;99.90;;;;;;4789220;29;20417;-92
2021/12/28 09:06:32;;;;;;;26.45;9.32;;;6.60;99.90;;;;;;4789753;29;20050;-93
2021/12/28 09:08:57;;;;;;;27.15;9.80;;;6.60;99.90;;;;;;4787969;29;20470;-93
2021/12/28 09:11:24;;;;;;;22.50;9.52;;;6.60;99.90;;;;;;4774378;29;20078;-94
2021/12/28 09:13:50;;;;;;;27.92;9.88;;;6.50;99.90;;;;;;4774457;29;20499;-93
2021/12/28 09:16:16;;;;;;;30.95;9.43;;;6.60;99.90;;;;;;4774375;29;20420;-93
2021/12/28 09:18:41;;;;;;;30.70;9.75;;;6.70;99.90;;;;;;4789631;29;20133;-94
2021/12/28 09:21:07;;;;;;;25.38;9.00;;;6.60;99.90;;;;;;4769923;29;20089;-94
2021/12/28 09:23:33;;;;;;;28.20;8.43;;;6.80;99.90;;;;;;4745131;30;20039;-93
2021/12/28 09:26:04;;;;;;;28.80;9.07;;;6.70;99.90;;;;;;4800501;29;20096;-92
2021/12/28 09:28:32;;;;;;;16.23;8.57;;;6.80;99.90;;;;;;4776416;30;20084;-93
2021/12/28 09:31:01;;;;;;;23.33;8.45;;;6.80;99.90;;;;;;4785782;30;20056;-91
2021/12/28 09:33:29;;;;;;;26.38;9.20;;;6.80;99.90;;;;;;4786239;30;20094;-91
2021/12/28 09:35:55;;;;;;;17.02;8.20;;;6.80;99.90;;;;;;4785583;30;20050;-92
2021/12/28 09:38:23;;;;;;;32.03;8.50;;;7.00;99.90;;;;;;4785543;30;20146;-90
2021/12/28 09:40:50;;;;;;;23.48;8.18;;;6.90;99.90;;;;;;4786233;30;20065;-95
2021/12/28 09:43:19;;;;;;;22.33;9.02;;;6.90;99.90;;;;;;4770881;30;20109;-94
2021/12/28 09:45:47;;;;;;;21.85;8.15;;;6.90;99.90;;;;;;4771849;30;20059;-95
2021/12/28 09:48:13;;;;;;;20.17;8.55;;;7.10;99.90;;;;;;4786571;30;20131;-96
2021/12/28 09:50:39;;;;;;;21.50;8.35;;;7.00;99.90;;;;;;4773286;29;20075;-89
2021/12/28 09:53:06;;;;;;;23.73;8.65;;;7.00;99.90;;;;;;4803310;29;20406;-87
2021/12/28 09:55:32;;;;;;;24.85;8.93;;;7.00;99.90;;;;;;4804063;29;20059;-88
2021/12/28 09:57:58;;;;;;;22.45;8.80;;;7.00;99.90;;;;;;4804292;29;20095;-86
2021/12/28 10:00:23;;;;;;;20.65;8.73;;;7.00;99.90;;;;;;4804925;29;20406;-88
2021/12/28 10:02:49;;;;;;;27.30;8.40;;;7.00;99.90;;;;;;4788994;29;20062;-91
2021/12/28 10:05:18;;;;;;;21.35;7.72;;;7.10;99.90;;;;;;4803961;29;20051;-93
2021/12/28 10:07:57;;;;;;;21.00;7.78;;;7.00;99.90;;;;;;4804690;29;20486;-91
2021/12/28 10:10:32;;;;;;;18.33;8.55;;;7.20;99.90;;;;;;4774831;29;20362;-91
2021/12/28 10:12:59;;;;;;;24.67;8.15;;;7.20;99.90;;;;;;4788739;29;20125;-89
2021/12/28 10:15:27;;;;;;;22.15;7.57;;;7.20;99.90;;;;;;4788953;29;20051;-87
2021/12/28 10:17:56;;;;;;;24.83;7.80;;;7.30;99.90;;;;;;4789014;29;20058;-86
2021/12/28 10:20:30;;;;;;;21.02;8.23;;;7.20;99.90;;;;;;4803333;29;20383;-86
2021/12/28 10:23:02;;;;;;;21.05;8.60;;;7.20;99.90;;;;;;4803350;29;20063;-88
2021/12/28 10:25:55;;;;;;;25.38;8.05;;;7.20;99.90;;;;;;4788670;29;20096;-87
2021/12/28 10:28:25;;;;;;;24.40;8.93;;;7.30;99.90;;;;;;4800538;29;20426;-93
2021/12/28 10:30:56;;;;;;;28.52;8.38;;;7.30;99.90;;;;;;4788522;29;20055;-91
2021/12/28 10:33:24;;;;;;;23.00;8.82;;;7.30;99.90;;;;;;4788062;29;20047;-91
2021/12/28 10:36:19;;;;;;;15.45;7.75;;;7.30;99.90;;;;;;4773628;29;20054;-91
2021/12/28 10:38:49;;;;;;;22.42;7.63;;;7.30;99.90;;;;;;4798700;29;20474;-92
2021/12/28 10:41:19;;;;;;;19.35;8.13;;;7.30;99.90;;;;;;4773502;29;20110;-92
2021/12/28 10:43:47;;;;;;;38.33;8.52;;;7.30;99.90;;;;;;4804454;29;20043;-94
2021/12/28 10:46:14;;;;;;;19.60;8.27;;;7.30;99.90;;;;;;4773554;29;20106;-93
2021/12/28 10:48:49;;;;;;;16.75;7.20;;;7.40;99.90;;;;;;4806535;29;20489;-93
2021/12/28 10:51:28;;;;;;;22.73;8.35;;;7.50;99.90;;;;;;4791981;29;20047;-91
2021/12/28 10:56:33;;;;;;;16.27;7.28;;;7.40;99.90;;;;;;4792501;29;20188;-91
2021/12/28 10:58:59;;;;;;;22.58;8.02;;;7.40;99.90;;;;;;4763459;29;20062;-91
2021/12/28 11:01:29;;;;;;;19.88;7.55;;;7.50;99.90;;;;;;4791606;29;20057;-90
2021/12/28 11:03:56;;;;;;;23.88;7.82;;;7.40;99.90;;;;;;4777232;29;20414;-91
2021/12/28 11:06:28;;;;;;;17.55;7.50;;;7.40;99.90;;;;;;4776426;29;20486;-91
2021/12/28 11:08:55;;;;;;;17.67;7.82;;;7.50;99.90;;;;;;4792100;29;20482;-91
2021/12/28 11:11:22;;;;;;;16.83;7.65;;;7.50;99.90;;;;;;4806463;29;20051;-96
2021/12/28 11:13:48;;;;;;;16.27;6.80;;;7.60;99.90;;;;;;4795680;29;20460;-95
2021/12/28 11:16:15;;;;;;;14.90;7.30;;;7.50;99.90;;;;;;4797214;29;20119;-95
2021/12/28 11:18:42;;;;;;;17.48;7.20;;;7.60;99.90;;;;;;4815334;29;20425;-95
2021/12/28 11:21:11;;;;;;;17.08;7.35;;;7.60;99.90;;;;;;4777023;29;20116;-92
2021/12/28 11:23:37;;;;;;;14.25;7.45;;;7.60;99.90;;;;;;4798825;29;20043;-92
2021/12/28 11:26:14;;;;;;;15.77;7.63;;;7.60;99.90;;;;;;4788110;30;20126;-93
2021/12/28 11:28:41;;;;;;;16.17;7.07;;;7.70;99.90;;;;;;4760138;30;20504;-94
2021/12/28 11:31:16;;;;;;;13.98;6.63;;;7.70;99.90;;;;;;4758893;30;20406;-94
2021/12/28 11:34:06;;;;;;;11.50;6.93;;;7.70;99.90;;;;;;4773844;30;20088;-95
2021/12/28 11:36:47;;;;;;;12.15;6.40;;;7.70;99.90;;;;;;4775259;30;20129;-94
2021/12/28 11:39:17;;;;;;;12.50;6.78;;;7.70;99.90;;;;;;4776410;30;20058;-95
2021/12/28 11:41:44;;;;;;;11.33;6.93;;;7.70;99.90;;;;;;4775540;30;20051;-94
2021/12/28 11:44:12;;;;;;;13.00;7.05;;;7.80;99.90;;;;;;4774372;30;20358;-95
2021/12/28 11:46:38;;;;;;;12.20;7.15;;;7.80;99.90;;;;;;4784186;29;20058;-95
2021/12/28 11:49:06;;;;;;;12.20;7.68;;;7.80;99.90;;;;;;4768716;29;20051;-93
2021/12/28 11:51:31;;;;;;;10.35;7.20;;;7.80;99.90;;;;;;4775288;29;20051;-93
2021/12/28 11:53:58;;;;;;;13.65;7.55;;;7.90;99.90;;;;;;4806278;29;20470;-93
2021/12/28 11:56:28;;;;;;;11.30;7.25;;;7.90;99.90;;;;;;4782999;30;20115;-91
2021/12/28 11:59:15;;;;;;;11.55;7.13;;;7.90;99.90;;;;;;4789055;29;20510;-93
2021/12/28 12:01:53;;;;;;;12.15;6.95;;;7.90;99.90;;;;;;4805819;29;20050;-92
2021/12/28 12:04:31;;;;;;;12.73;7.32;;;7.90;99.90;;;;;;4790988;29;20053;-88
2021/12/28 12:07:09;;;;;;;9.65;6.80;;;7.90;99.90;;;;;;4806397;29;20402;-92
2021/12/28 12:09:55;;;;;;;11.30;6.13;;;7.90;99.90;;;;;;4805058;29;20062;-90
2021/12/28 12:12:28;;;;;;;8.10;6.00;;;7.90;99.90;;;;;;4805204;29;20456;-90
2021/12/28 12:14:57;;;;;;;7.78;5.72;;;7.90;99.90;;;;;;4805079;29;20108;-91
2021/12/28 12:17:29;;;;;;;8.88;6.20;;;7.90;99.90;;;;;;4805331;29;20130;-91
2021/12/28 12:19:55;;;;;;;8.02;6.10;;;7.90;99.90;;;;;;4805366;29;20062;-91
2021/12/28 12:22:30;;;;;;;7.82;6.20;;;7.90;99.90;;;;;;4805803;29;20405;-94
2021/12/28 12:24:59;;;;;;;10.90;6.07;;;7.90;99.90;;;;;;4805722;29;20096;-92
2021/12/28 12:27:38;;;;;;;8.73;6.43;;;7.90;99.90;;;;;;4770541;29;20707;-93
2021/12/28 12:30:22;;;;;;;8.32;5.75;;;7.90;99.90;;;;;;4788917;29;20102;-93
2021/12/28 12:35:29;;;;;;;9.23;5.38;;;7.80;99.90;;;;;;4787268;30;20146;-92
2021/12/28 12:37:57;;;;;;;9.07;6.18;;;7.90;99.90;;;;;;4771748;30;20070;-93
2021/12/28 12:40:43;;;;;;;9.15;6.03;;;7.90;99.90;;;;;;4757896;30;20112;-94
2021/12/28 12:43:12;;;;;;;8.15;5.70;;;7.80;99.90;;;;;;4801828;29;20135;-93
2021/12/28 12:46:05;;;;;;;11.85;6.53;;;7.80;99.90;;;;;;4757120;30;20056;-95
2021/12/28 12:48:40;;;;;;;11.52;6.75;;;7.90;99.90;;;;;;4773933;29;20058;-93
2021/12/28 12:51:27;;;;;;;10.15;6.18;;;8.00;99.90;;;;;;4775732;30;20055;-94
2021/12/28 12:54:03;;;;;;;9.20;5.78;;;7.90;99.90;;;;;;4786655;30;20140;-94
2021/12/28 12:56:30;;;;;;;8.45;6.25;;;8.00;99.90;;;;;;4786687;30;20410;-94
2021/12/28 12:58:58;;;;;;;10.68;6.40;;;8.00;99.90;;;;;;4786868;30;20118;-93